sensor_id;sensor_type;location;lat;lon;timestamp;noise_LAeq;noise_LA_min;noise_LA_max;noise_LA01;noise_LA95
67900;Laerm;54700;51.796;10.956;2023-02-15T00:01:10;31.35;27.52;38.50;;
67900;Laerm;54700;51.796;10.956;2023-02-15T00:03:37;29.65;27.42;46.07;;
67900;Laerm;54700;51.796;10.956;2023-02-15T00:06:05;32.79;27.75;46.34;;
67900;Laerm;54700;51.796;10.956;2023-02-15T00:08:32;32.96;27.66;42.10;;
67900;Laerm;54700;51.796;10.956;2023-02-15T00:11:06;34.56;28.50;45.96;;
67900;Laerm;54700;51.796;10.956;2023-02-15T00:13:35;31.36;27.90;39.59;;
67900;Laerm;54700;51.796;10.956;2023-02-15T00:16:05;32.02;28.06;50.85;;
67900;Laerm;54700;51.796;10.956;2023-02-15T00:18:34;35.55;28.36;48.04;;
67900;Laerm;54700;51.796;10.956;2023-02-15T00:21:04;36.24;28.16;46.13;;
67900;Laerm;54700;51.796;10.956;2023-02-15T00:23:33;49.68;28.91;66.12;;
67900;Laerm;54700;51.796;10.956;2023-02-15T00:26:05;44.26;27.18;63.74;;
67900;Laerm;54700;51.796;10.956;2023-02-15T00:28:32;49.80;27.73;67.69;;
67900;Laerm;54700;51.796;10.956;2023-02-15T00:31:04;31.84;27.88;43.56;;
67900;Laerm;54700;51.796;10.956;2023-02-15T00:33:30;29.91;27.41;40.41;;
67900;Laerm;54700;51.796;10.956;2023-02-15T00:36:00;50.81;27.45;68.57;;
67900;Laerm;54700;51.796;10.956;2023-02-15T00:38:27;30.39;27.55;37.54;;
67900;Laerm;54700;51.796;10.956;2023-02-15T00:40:55;51.04;27.26;65.74;;
67900;Laerm;54700;51.796;10.956;2023-02-15T00:43:22;32.72;27.80;44.90;;
67900;Laerm;54700;51.796;10.956;2023-02-15T00:45:50;38.74;29.31;53.31;;
67900;Laerm;54700;51.796;10.956;2023-02-15T00:48:18;36.53;27.26;53.45;;
67900;Laerm;54700;51.796;10.956;2023-02-15T00:50:44;29.96;27.43;38.17;;
67900;Laerm;54700;51.796;10.956;2023-02-15T00:53:13;33.33;28.02;42.06;;
67900;Laerm;54700;51.796;10.956;2023-02-15T00:55:39;33.26;27.64;42.21;;
67900;Laerm;54700;51.796;10.956;2023-02-15T00:58:07;30.03;27.64;37.63;;
67900;Laerm;54700;51.796;10.956;2023-02-15T01:00:34;51.20;28.33;68.30;;
67900;Laerm;54700;51.796;10.956;2023-02-15T01:03:03;34.17;28.73;42.82;;
67900;Laerm;54700;51.796;10.956;2023-02-15T01:05:30;36.17;28.45;46.16;;
67900;Laerm;54700;51.796;10.956;2023-02-15T01:07:58;29.17;27.23;39.49;;
67900;Laerm;54700;51.796;10.956;2023-02-15T01:10:27;37.70;27.32;52.98;;
67900;Laerm;54700;51.796;10.956;2023-02-15T01:12:55;51.28;30.19;69.52;;
67900;Laerm;54700;51.796;10.956;2023-02-15T01:15:22;53.23;28.38;69.97;;
67900;Laerm;54700;51.796;10.956;2023-02-15T01:17:49;33.00;29.29;46.32;;
67900;Laerm;54700;51.796;10.956;2023-02-15T01:20:18;33.36;28.30;44.70;;
67900;Laerm;54700;51.796;10.956;2023-02-15T01:22:45;33.49;28.71;43.00;;
67900;Laerm;54700;51.796;10.956;2023-02-15T01:25:15;36.04;28.78;48.75;;
67900;Laerm;54700;51.796;10.956;2023-02-15T01:27:43;53.39;28.86;68.25;;
67900;Laerm;54700;51.796;10.956;2023-02-15T01:30:15;52.98;28.70;69.09;;
67900;Laerm;54700;51.796;10.956;2023-02-15T01:32:42;47.07;28.16;64.92;;
67900;Laerm;54700;51.796;10.956;2023-02-15T01:35:12;38.59;29.74;48.52;;
67900;Laerm;54700;51.796;10.956;2023-02-15T01:37:39;37.08;28.45;52.64;;
67900;Laerm;54700;51.796;10.956;2023-02-15T01:40:08;35.82;27.41;50.67;;
67900;Laerm;54700;51.796;10.956;2023-02-15T01:42:38;48.81;28.03;64.07;;
67900;Laerm;54700;51.796;10.956;2023-02-15T01:45:18;31.41;27.65;41.86;;
67900;Laerm;54700;51.796;10.956;2023-02-15T01:47:54;34.62;29.26;44.17;;
67900;Laerm;54700;51.796;10.956;2023-02-15T01:50:29;34.59;29.42;45.20;;
67900;Laerm;54700;51.796;10.956;2023-02-15T01:53:01;34.43;28.88;41.59;;
67900;Laerm;54700;51.796;10.956;2023-02-15T01:55:35;31.39;27.84;43.16;;
67900;Laerm;54700;51.796;10.956;2023-02-15T01:58:03;30.83;27.61;38.92;;
67900;Laerm;54700;51.796;10.956;2023-02-15T02:00:31;34.72;28.00;52.46;;
67900;Laerm;54700;51.796;10.956;2023-02-15T02:03:00;52.74;27.82;69.17;;
67900;Laerm;54700;51.796;10.956;2023-02-15T02:05:28;32.02;27.87;39.59;;
67900;Laerm;54700;51.796;10.956;2023-02-15T02:07:57;32.93;28.62;44.86;;
67900;Laerm;54700;51.796;10.956;2023-02-15T02:10:25;30.93;28.25;39.58;;
67900;Laerm;54700;51.796;10.956;2023-02-15T02:12:54;48.38;27.73;65.86;;
67900;Laerm;54700;51.796;10.956;2023-02-15T02:15:28;35.77;27.85;53.88;;
67900;Laerm;54700;51.796;10.956;2023-02-15T02:18:13;51.15;27.64;68.07;;
67900;Laerm;54700;51.796;10.956;2023-02-15T02:21:20;30.98;27.54;40.71;;
67900;Laerm;54700;51.796;10.956;2023-02-15T02:30:25;54.42;27.75;71.00;;
67900;Laerm;54700;51.796;10.956;2023-02-15T02:33:28;29.84;27.63;40.08;;
67900;Laerm;54700;51.796;10.956;2023-02-15T02:36:05;53.09;28.20;71.23;;
67900;Laerm;54700;51.796;10.956;2023-02-15T02:38:44;31.18;27.85;41.30;;
67900;Laerm;54700;51.796;10.956;2023-02-15T02:41:18;32.78;28.53;44.33;;
67900;Laerm;54700;51.796;10.956;2023-02-15T02:43:54;31.42;28.25;40.54;;
67900;Laerm;54700;51.796;10.956;2023-02-15T02:46:31;32.18;28.47;40.30;;
67900;Laerm;54700;51.796;10.956;2023-02-15T02:49:02;34.62;29.85;47.74;;
67900;Laerm;54700;51.796;10.956;2023-02-15T02:51:29;35.33;30.29;42.30;;
67900;Laerm;54700;51.796;10.956;2023-02-15T02:54:01;37.22;31.36;44.46;;
67900;Laerm;54700;51.796;10.956;2023-02-15T02:56:35;50.67;30.10;66.25;;
67900;Laerm;54700;51.796;10.956;2023-02-15T02:59:07;35.73;30.33;46.69;;
67900;Laerm;54700;51.796;10.956;2023-02-15T03:01:40;32.48;29.33;45.43;;
67900;Laerm;54700;51.796;10.956;2023-02-15T03:04:15;48.31;29.13;63.85;;
67900;Laerm;54700;51.796;10.956;2023-02-15T03:06:47;48.24;28.65;64.06;;
67900;Laerm;54700;51.796;10.956;2023-02-15T03:09:20;33.21;28.75;51.43;;
67900;Laerm;54700;51.796;10.956;2023-02-15T03:11:50;54.13;29.01;68.02;;
67900;Laerm;54700;51.796;10.956;2023-02-15T03:14:18;33.41;29.22;46.59;;
67900;Laerm;54700;51.796;10.956;2023-02-15T03:16:49;52.15;29.24;68.01;;
67900;Laerm;54700;51.796;10.956;2023-02-15T03:19:22;58.80;31.17;75.68;;
67900;Laerm;54700;51.796;10.956;2023-02-15T03:21:53;36.99;31.11;51.33;;
67900;Laerm;54700;51.796;10.956;2023-02-15T03:24:32;55.17;32.12;71.46;;
67900;Laerm;54700;51.796;10.956;2023-02-15T03:27:02;57.77;34.49;70.03;;
67900;Laerm;54700;51.796;10.956;2023-02-15T03:29:31;44.78;33.66;58.15;;
67900;Laerm;54700;51.796;10.956;2023-02-15T03:32:00;55.35;34.75;70.77;;
67900;Laerm;54700;51.796;10.956;2023-02-15T03:34:30;55.38;32.41;69.24;;
67900;Laerm;54700;51.796;10.956;2023-02-15T03:37:00;53.91;33.23;66.77;;
67900;Laerm;54700;51.796;10.956;2023-02-15T03:39:36;59.66;34.01;71.40;;
67900;Laerm;54700;51.796;10.956;2023-02-15T03:42:09;53.35;33.94;66.40;;
67900;Laerm;54700;51.796;10.956;2023-02-15T03:44:50;53.63;32.96;66.45;;
67900;Laerm;54700;51.796;10.956;2023-02-15T03:47:20;51.84;33.65;67.83;;
67900;Laerm;54700;51.796;10.956;2023-02-15T03:49:53;54.56;34.53;69.96;;
67900;Laerm;54700;51.796;10.956;2023-02-15T03:52:25;56.80;34.59;73.56;;
67900;Laerm;54700;51.796;10.956;2023-02-15T03:54:51;36.01;32.75;42.10;;
67900;Laerm;54700;51.796;10.956;2023-02-15T03:57:21;51.64;31.95;68.35;;
67900;Laerm;54700;51.796;10.956;2023-02-15T04:00:13;51.70;31.64;69.94;;
67900;Laerm;54700;51.796;10.956;2023-02-15T04:03:09;53.55;33.37;68.09;;
67900;Laerm;54700;51.796;10.956;2023-02-15T04:05:38;54.61;33.46;70.32;;
67900;Laerm;54700;51.796;10.956;2023-02-15T04:08:05;55.26;34.06;72.09;;
67900;Laerm;54700;51.796;10.956;2023-02-15T04:10:32;58.28;34.78;70.86;;
67900;Laerm;54700;51.796;10.956;2023-02-15T04:13:16;54.42;33.10;70.12;;
67900;Laerm;54700;51.796;10.956;2023-02-15T04:15:43;58.08;33.46;70.90;;
67900;Laerm;54700;51.796;10.956;2023-02-15T04:18:27;58.80;36.10;69.65;;
67900;Laerm;54700;51.796;10.956;2023-02-15T04:21:13;57.20;34.16;71.43;;
67900;Laerm;54700;51.796;10.956;2023-02-15T04:23:57;60.88;35.27;77.55;;
67900;Laerm;54700;51.796;10.956;2023-02-15T04:26:41;59.27;35.11;72.62;;
67900;Laerm;54700;51.796;10.956;2023-02-15T04:29:08;58.46;37.12;70.00;;
67900;Laerm;54700;51.796;10.956;2023-02-15T04:31:35;59.46;33.56;73.02;;
67900;Laerm;54700;51.796;10.956;2023-02-15T04:34:02;60.15;36.19;71.60;;
67900;Laerm;54700;51.796;10.956;2023-02-15T04:36:30;55.49;34.13;69.71;;
67900;Laerm;54700;51.796;10.956;2023-02-15T04:38:56;54.67;33.07;70.10;;
67900;Laerm;54700;51.796;10.956;2023-02-15T04:41:23;59.85;39.20;72.95;;
67900;Laerm;54700;51.796;10.956;2023-02-15T04:43:50;60.12;37.33;75.55;;
67900;Laerm;54700;51.796;10.956;2023-02-15T04:46:17;58.23;36.40;73.58;;
67900;Laerm;54700;51.796;10.956;2023-02-15T04:48:43;59.97;37.89;69.13;;
67900;Laerm;54700;51.796;10.956;2023-02-15T04:51:10;60.99;41.39;69.62;;
67900;Laerm;54700;51.796;10.956;2023-02-15T04:53:38;61.01;39.57;72.99;;
67900;Laerm;54700;51.796;10.956;2023-02-15T04:56:05;59.66;38.57;71.38;;
67900;Laerm;54700;51.796;10.956;2023-02-15T04:58:32;58.27;39.68;69.39;;
67900;Laerm;54700;51.796;10.956;2023-02-15T05:00:59;60.47;39.34;69.97;;
67900;Laerm;54700;51.796;10.956;2023-02-15T05:03:26;61.83;40.34;73.10;;
67900;Laerm;54700;51.796;10.956;2023-02-15T05:05:55;56.77;37.76;68.28;;
67900;Laerm;54700;51.796;10.956;2023-02-15T05:08:22;60.28;41.64;80.63;;
67900;Laerm;54700;51.796;10.956;2023-02-15T05:10:50;57.48;38.88;70.84;;
67900;Laerm;54700;51.796;10.956;2023-02-15T05:13:17;59.57;39.44;71.37;;
67900;Laerm;54700;51.796;10.956;2023-02-15T05:15:47;59.89;40.49;69.92;;
67900;Laerm;54700;51.796;10.956;2023-02-15T05:18:14;62.33;45.39;69.92;;
67900;Laerm;54700;51.796;10.956;2023-02-15T05:20:41;58.90;40.92;75.13;;
67900;Laerm;54700;51.796;10.956;2023-02-15T05:23:08;59.09;39.53;71.47;;
67900;Laerm;54700;51.796;10.956;2023-02-15T05:25:35;61.57;42.58;70.99;;
67900;Laerm;54700;51.796;10.956;2023-02-15T05:28:21;61.62;42.11;71.84;;
67900;Laerm;54700;51.796;10.956;2023-02-15T05:30:50;62.33;43.09;70.02;;
67900;Laerm;54700;51.796;10.956;2023-02-15T05:33:17;61.69;42.65;69.65;;
67900;Laerm;54700;51.796;10.956;2023-02-15T05:35:44;58.94;41.01;68.54;;
67900;Laerm;54700;51.796;10.956;2023-02-15T05:38:10;60.67;43.27;72.94;;
67900;Laerm;54700;51.796;10.956;2023-02-15T05:40:37;62.20;48.47;71.84;;
67900;Laerm;54700;51.796;10.956;2023-02-15T05:43:04;60.03;44.60;70.30;;
67900;Laerm;54700;51.796;10.956;2023-02-15T05:45:32;63.22;41.94;77.80;;
67900;Laerm;54700;51.796;10.956;2023-02-15T05:47:59;62.90;48.79;75.25;;
67900;Laerm;54700;51.796;10.956;2023-02-15T05:50:29;63.25;44.65;71.16;;
67900;Laerm;54700;51.796;10.956;2023-02-15T05:52:59;63.69;45.98;73.17;;
67900;Laerm;54700;51.796;10.956;2023-02-15T05:55:32;64.63;54.68;75.57;;
67900;Laerm;54700;51.796;10.956;2023-02-15T05:58:01;63.73;52.90;74.46;;
67900;Laerm;54700;51.796;10.956;2023-02-15T06:00:47;63.81;52.36;75.29;;
67900;Laerm;54700;51.796;10.956;2023-02-15T06:03:14;63.18;49.62;70.07;;
67900;Laerm;54700;51.796;10.956;2023-02-15T06:05:51;63.04;48.59;71.95;;
67900;Laerm;54700;51.796;10.956;2023-02-15T06:08:33;63.71;51.77;71.37;;
67900;Laerm;54700;51.796;10.956;2023-02-15T06:11:00;65.29;51.15;76.23;;
67900;Laerm;54700;51.796;10.956;2023-02-15T06:13:27;64.13;49.40;71.59;;
67900;Laerm;54700;51.796;10.956;2023-02-15T06:15:55;62.97;45.52;72.94;;
67900;Laerm;54700;51.796;10.956;2023-02-15T06:18:22;62.63;48.41;73.12;;
67900;Laerm;54700;51.796;10.956;2023-02-15T06:20:49;63.06;43.46;73.21;;
67900;Laerm;54700;51.796;10.956;2023-02-15T06:23:17;63.15;44.03;72.57;;
67900;Laerm;54700;51.796;10.956;2023-02-15T06:25:44;64.05;48.75;73.20;;
67900;Laerm;54700;51.796;10.956;2023-02-15T06:28:11;66.41;45.78;78.35;;
67900;Laerm;54700;51.796;10.956;2023-02-15T06:30:38;62.90;48.60;70.96;;
67900;Laerm;54700;51.796;10.956;2023-02-15T06:33:09;63.55;43.17;71.52;;
67900;Laerm;54700;51.796;10.956;2023-02-15T06:35:41;62.05;45.81;72.15;;
67900;Laerm;54700;51.796;10.956;2023-02-15T06:38:07;62.78;46.90;73.79;;
67900;Laerm;54700;51.796;10.956;2023-02-15T06:40:34;65.42;51.58;74.61;;
67900;Laerm;54700;51.796;10.956;2023-02-15T06:43:05;66.56;49.62;76.25;;
67900;Laerm;54700;51.796;10.956;2023-02-15T06:45:32;64.47;44.58;74.30;;
67900;Laerm;54700;51.796;10.956;2023-02-15T06:47:59;63.35;44.23;74.54;;
67900;Laerm;54700;51.796;10.956;2023-02-15T06:50:28;65.70;47.40;75.43;;
67900;Laerm;54700;51.796;10.956;2023-02-15T06:52:59;64.81;50.28;72.87;;
67900;Laerm;54700;51.796;10.956;2023-02-15T06:55:26;63.18;48.23;73.16;;
67900;Laerm;54700;51.796;10.956;2023-02-15T06:57:56;64.72;44.26;74.95;;
67900;Laerm;54700;51.796;10.956;2023-02-15T07:00:26;65.98;50.39;76.96;;
67900;Laerm;54700;51.796;10.956;2023-02-15T07:02:57;62.85;46.46;69.78;;
67900;Laerm;54700;51.796;10.956;2023-02-15T07:05:26;64.31;49.42;73.70;;
67900;Laerm;54700;51.796;10.956;2023-02-15T07:07:58;62.62;40.22;71.84;;
67900;Laerm;54700;51.796;10.956;2023-02-15T07:10:37;60.83;40.39;71.95;;
67900;Laerm;54700;51.796;10.956;2023-02-15T07:13:04;59.74;40.54;70.98;;
67900;Laerm;54700;51.796;10.956;2023-02-15T07:15:30;63.99;42.66;74.41;;
67900;Laerm;54700;51.796;10.956;2023-02-15T07:17:58;61.34;42.75;70.87;;
67900;Laerm;54700;51.796;10.956;2023-02-15T07:20:26;62.82;41.76;71.48;;
67900;Laerm;54700;51.796;10.956;2023-02-15T07:23:05;61.60;45.32;71.25;;
67900;Laerm;54700;51.796;10.956;2023-02-15T07:25:35;61.86;40.69;70.82;;
67900;Laerm;54700;51.796;10.956;2023-02-15T07:28:05;62.22;42.60;69.36;;
67900;Laerm;54700;51.796;10.956;2023-02-15T07:30:33;63.52;47.21;71.01;;
67900;Laerm;54700;51.796;10.956;2023-02-15T07:33:03;62.21;41.40;71.20;;
67900;Laerm;54700;51.796;10.956;2023-02-15T07:35:48;63.24;39.44;72.28;;
67900;Laerm;54700;51.796;10.956;2023-02-15T07:38:19;64.27;41.63;75.40;;
67900;Laerm;54700;51.796;10.956;2023-02-15T07:40:49;61.23;40.96;70.32;;
67900;Laerm;54700;51.796;10.956;2023-02-15T07:43:16;63.06;48.83;70.72;;
67900;Laerm;54700;51.796;10.956;2023-02-15T07:45:43;63.25;43.52;70.92;;
67900;Laerm;54700;51.796;10.956;2023-02-15T07:48:15;63.01;44.98;70.47;;
67900;Laerm;54700;51.796;10.956;2023-02-15T07:50:45;62.39;41.22;74.05;;
67900;Laerm;54700;51.796;10.956;2023-02-15T07:53:12;63.38;46.83;72.84;;
67900;Laerm;54700;51.796;10.956;2023-02-15T07:55:40;62.45;43.76;70.82;;
67900;Laerm;54700;51.796;10.956;2023-02-15T07:58:11;62.37;42.17;70.35;;
67900;Laerm;54700;51.796;10.956;2023-02-15T08:00:42;65.25;53.19;74.59;;
67900;Laerm;54700;51.796;10.956;2023-02-15T08:03:29;64.04;41.50;74.65;;
67900;Laerm;54700;51.796;10.956;2023-02-15T08:05:57;64.72;49.49;71.44;;
67900;Laerm;54700;51.796;10.956;2023-02-15T08:08:34;64.46;43.29;75.87;;
67900;Laerm;54700;51.796;10.956;2023-02-15T08:11:07;63.12;39.89;72.81;;
67900;Laerm;54700;51.796;10.956;2023-02-15T08:13:56;62.61;38.47;71.09;;
67900;Laerm;54700;51.796;10.956;2023-02-15T08:16:27;62.04;47.04;69.34;;
67900;Laerm;54700;51.796;10.956;2023-02-15T08:18:56;61.70;40.39;72.18;;
67900;Laerm;54700;51.796;10.956;2023-02-15T08:21:26;63.72;43.51;75.38;;
67900;Laerm;54700;51.796;10.956;2023-02-15T08:24:16;63.47;40.53;75.33;;
67900;Laerm;54700;51.796;10.956;2023-02-15T08:27:05;60.38;41.27;68.78;;
67900;Laerm;54700;51.796;10.956;2023-02-15T08:29:33;63.19;45.90;71.99;;
67900;Laerm;54700;51.796;10.956;2023-02-15T08:32:08;64.37;43.47;72.72;;
67900;Laerm;54700;51.796;10.956;2023-02-15T08:34:39;64.63;42.42;72.13;;
67900;Laerm;54700;51.796;10.956;2023-02-15T08:37:12;61.23;38.88;70.12;;
67900;Laerm;54700;51.796;10.956;2023-02-15T08:39:42;60.29;40.54;70.25;;
67900;Laerm;54700;51.796;10.956;2023-02-15T08:42:17;63.58;39.02;77.76;;
67900;Laerm;54700;51.796;10.956;2023-02-15T08:44:49;60.64;37.69;77.36;;
67900;Laerm;54700;51.796;10.956;2023-02-15T08:47:32;63.37;42.80;71.54;;
67900;Laerm;54700;51.796;10.956;2023-02-15T08:50:08;62.77;47.54;74.22;;
67900;Laerm;54700;51.796;10.956;2023-02-15T08:52:43;62.16;42.30;73.34;;
67900;Laerm;54700;51.796;10.956;2023-02-15T08:55:40;65.41;48.49;80.02;;
67900;Laerm;54700;51.796;10.956;2023-02-15T08:59:17;62.84;44.25;79.25;;
67900;Laerm;54700;51.796;10.956;2023-02-15T09:01:34;63.75;45.54;73.27;;
67900;Laerm;54700;51.796;10.956;2023-02-15T09:04:06;62.44;37.53;75.59;;
67900;Laerm;54700;51.796;10.956;2023-02-15T09:06:38;62.47;47.78;69.55;;
67900;Laerm;54700;51.796;10.956;2023-02-15T09:09:08;61.96;38.95;70.05;;
67900;Laerm;54700;51.796;10.956;2023-02-15T09:11:37;63.01;37.81;75.44;;
67900;Laerm;54700;51.796;10.956;2023-02-15T09:14:19;65.35;50.74;77.15;;
67900;Laerm;54700;51.796;10.956;2023-02-15T09:16:47;64.38;52.44;71.85;;
67900;Laerm;54700;51.796;10.956;2023-02-15T09:19:26;62.14;41.84;71.23;;
67900;Laerm;54700;51.796;10.956;2023-02-15T09:22:06;60.16;38.92;69.56;;
67900;Laerm;54700;51.796;10.956;2023-02-15T09:24:42;64.04;42.69;76.77;;
67900;Laerm;54700;51.796;10.956;2023-02-15T09:27:10;66.97;45.44;89.27;;
67900;Laerm;54700;51.796;10.956;2023-02-15T09:29:38;63.67;40.56;88.38;;
67900;Laerm;54700;51.796;10.956;2023-02-15T09:32:07;63.52;46.26;82.86;;
67900;Laerm;54700;51.796;10.956;2023-02-15T09:34:34;65.03;41.85;76.56;;
67900;Laerm;54700;51.796;10.956;2023-02-15T09:37:06;62.12;41.23;81.90;;
67900;Laerm;54700;51.796;10.956;2023-02-15T09:39:33;62.77;45.30;86.39;;
67900;Laerm;54700;51.796;10.956;2023-02-15T09:42:36;60.64;43.39;68.73;;
67900;Laerm;54700;51.796;10.956;2023-02-15T09:45:23;63.27;37.81;90.91;;
67900;Laerm;54700;51.796;10.956;2023-02-15T09:48:15;64.75;38.04;81.38;;
67900;Laerm;54700;51.796;10.956;2023-02-15T09:51:02;66.61;42.44;90.72;;
67900;Laerm;54700;51.796;10.956;2023-02-15T09:53:49;60.75;40.31;78.85;;
67900;Laerm;54700;51.796;10.956;2023-02-15T09:56:26;62.41;49.87;81.33;;
67900;Laerm;54700;51.796;10.956;2023-02-15T09:59:01;60.82;41.71;69.96;;
67900;Laerm;54700;51.796;10.956;2023-02-15T10:01:48;61.21;41.57;70.74;;
67900;Laerm;54700;51.796;10.956;2023-02-15T10:07:28;66.41;53.09;75.70;;
67900;Laerm;54700;51.796;10.956;2023-02-15T10:10:06;62.13;50.09;69.83;;
67900;Laerm;54700;51.796;10.956;2023-02-15T10:12:51;63.68;43.92;76.80;;
67900;Laerm;54700;51.796;10.956;2023-02-15T10:15:46;63.10;42.64;76.83;;
67900;Laerm;54700;51.796;10.956;2023-02-15T10:21:24;63.26;40.80;71.73;;
67900;Laerm;54700;51.796;10.956;2023-02-15T10:24:42;61.97;41.14;70.70;;
67900;Laerm;54700;51.796;10.956;2023-02-15T10:27:19;62.31;35.87;73.96;;
67900;Laerm;54700;51.796;10.956;2023-02-15T10:29:56;62.07;37.37;76.15;;
67900;Laerm;54700;51.796;10.956;2023-02-15T10:32:35;63.64;38.45;74.60;;
67900;Laerm;54700;51.796;10.956;2023-02-15T10:35:31;63.48;48.24;73.76;;
67900;Laerm;54700;51.796;10.956;2023-02-15T10:38:23;61.99;42.02;72.65;;
67900;Laerm;54700;51.796;10.956;2023-02-15T10:41:13;59.33;38.47;69.61;;
67900;Laerm;54700;51.796;10.956;2023-02-15T10:44:12;61.19;48.42;74.34;;
67900;Laerm;54700;51.796;10.956;2023-02-15T10:49:52;64.60;45.84;78.50;;
67900;Laerm;54700;51.796;10.956;2023-02-15T10:52:39;63.22;43.28;78.05;;
67900;Laerm;54700;51.796;10.956;2023-02-15T10:55:14;60.35;35.74;72.97;;
67900;Laerm;54700;51.796;10.956;2023-02-15T10:57:54;62.35;35.83;75.63;;
67900;Laerm;54700;51.796;10.956;2023-02-15T11:00:41;66.03;46.92;80.90;;
67900;Laerm;54700;51.796;10.956;2023-02-15T11:03:29;62.60;39.21;75.53;;
67900;Laerm;54700;51.796;10.956;2023-02-15T11:06:03;62.00;45.45;78.20;;
67900;Laerm;54700;51.796;10.956;2023-02-15T11:08:43;63.11;41.06;69.29;;
67900;Laerm;54700;51.796;10.956;2023-02-15T11:11:15;62.35;37.50;72.38;;
67900;Laerm;54700;51.796;10.956;2023-02-15T11:13:51;60.78;39.94;69.31;;
67900;Laerm;54700;51.796;10.956;2023-02-15T11:16:25;61.32;40.43;81.65;;
67900;Laerm;54700;51.796;10.956;2023-02-15T11:18:57;60.15;39.61;69.56;;
67900;Laerm;54700;51.796;10.956;2023-02-15T11:21:27;61.47;41.76;71.49;;
67900;Laerm;54700;51.796;10.956;2023-02-15T11:23:59;59.66;36.41;72.03;;
67900;Laerm;54700;51.796;10.956;2023-02-15T11:26:33;62.39;43.37;77.66;;
67900;Laerm;54700;51.796;10.956;2023-02-15T11:29:10;62.74;40.23;70.88;;
67900;Laerm;54700;51.796;10.956;2023-02-15T11:31:42;61.81;45.39;77.10;;
67900;Laerm;54700;51.796;10.956;2023-02-15T11:34:15;61.81;41.52;72.11;;
67900;Laerm;54700;51.796;10.956;2023-02-15T11:36:46;63.20;41.64;72.83;;
67900;Laerm;54700;51.796;10.956;2023-02-15T11:39:19;63.45;45.32;77.39;;
67900;Laerm;54700;51.796;10.956;2023-02-15T11:41:49;62.56;41.07;72.26;;
67900;Laerm;54700;51.796;10.956;2023-02-15T11:44:21;62.81;38.27;75.22;;
67900;Laerm;54700;51.796;10.956;2023-02-15T11:46:49;68.40;55.82;78.07;;
67900;Laerm;54700;51.796;10.956;2023-02-15T11:49:22;61.94;42.08;72.82;;
67900;Laerm;54700;51.796;10.956;2023-02-15T11:51:50;64.88;39.92;76.81;;
67900;Laerm;54700;51.796;10.956;2023-02-15T11:54:25;62.05;45.22;73.20;;
67900;Laerm;54700;51.796;10.956;2023-02-15T11:56:55;61.63;43.03;73.52;;
67900;Laerm;54700;51.796;10.956;2023-02-15T11:59:29;68.54;46.63;87.40;;
67900;Laerm;54700;51.796;10.956;2023-02-15T12:02:02;61.59;44.22;74.28;;
67900;Laerm;54700;51.796;10.956;2023-02-15T12:04:31;62.36;34.93;80.87;;
67900;Laerm;54700;51.796;10.956;2023-02-15T12:07:02;63.91;41.59;81.11;;
67900;Laerm;54700;51.796;10.956;2023-02-15T12:09:36;62.33;40.76;79.58;;
67900;Laerm;54700;51.796;10.956;2023-02-15T12:12:23;61.58;39.71;75.81;;
67900;Laerm;54700;51.796;10.956;2023-02-15T12:14:51;65.43;53.81;87.24;;
67900;Laerm;54700;51.796;10.956;2023-02-15T12:17:23;60.73;38.97;80.64;;
67900;Laerm;54700;51.796;10.956;2023-02-15T12:19:50;61.76;38.59;79.39;;
67900;Laerm;54700;51.796;10.956;2023-02-15T12:22:25;61.91;35.86;73.20;;
67900;Laerm;54700;51.796;10.956;2023-02-15T12:24:55;62.37;39.69;78.64;;
67900;Laerm;54700;51.796;10.956;2023-02-15T12:27:24;62.86;46.47;75.74;;
67900;Laerm;54700;51.796;10.956;2023-02-15T12:29:55;61.93;39.12;70.20;;
67900;Laerm;54700;51.796;10.956;2023-02-15T12:32:34;62.99;36.11;76.80;;
67900;Laerm;54700;51.796;10.956;2023-02-15T12:35:08;62.35;36.72;73.63;;
67900;Laerm;54700;51.796;10.956;2023-02-15T12:37:37;64.82;41.15;76.57;;
67900;Laerm;54700;51.796;10.956;2023-02-15T12:40:20;64.92;44.80;82.22;;
67900;Laerm;54700;51.796;10.956;2023-02-15T12:42:47;62.47;43.93;76.32;;
67900;Laerm;54700;51.796;10.956;2023-02-15T12:45:25;61.30;42.56;69.83;;
67900;Laerm;54700;51.796;10.956;2023-02-15T12:48:09;62.52;43.17;76.41;;
67900;Laerm;54700;51.796;10.956;2023-02-15T12:50:43;63.24;45.50;79.19;;
67900;Laerm;54700;51.796;10.956;2023-02-15T12:53:19;61.43;43.97;77.39;;
67900;Laerm;54700;51.796;10.956;2023-02-15T12:55:55;62.91;44.24;76.46;;
67900;Laerm;54700;51.796;10.956;2023-02-15T12:58:34;62.74;41.13;73.08;;
67900;Laerm;54700;51.796;10.956;2023-02-15T13:01:16;62.64;39.65;76.50;;
67900;Laerm;54700;51.796;10.956;2023-02-15T13:04:01;62.29;38.89;74.26;;
67900;Laerm;54700;51.796;10.956;2023-02-15T13:06:32;66.51;52.53;72.16;;
67900;Laerm;54700;51.796;10.956;2023-02-15T13:09:06;62.53;48.86;76.67;;
67900;Laerm;54700;51.796;10.956;2023-02-15T13:11:43;62.24;46.09;70.48;;
67900;Laerm;54700;51.796;10.956;2023-02-15T13:14:22;63.72;46.54;74.77;;
67900;Laerm;54700;51.796;10.956;2023-02-15T13:16:53;62.57;42.77;69.44;;
67900;Laerm;54700;51.796;10.956;2023-02-15T13:19:31;61.26;39.01;73.04;;
67900;Laerm;54700;51.796;10.956;2023-02-15T13:22:04;61.09;38.44;70.76;;
67900;Laerm;54700;51.796;10.956;2023-02-15T13:24:35;63.14;46.96;71.56;;
67900;Laerm;54700;51.796;10.956;2023-02-15T13:27:08;63.39;37.44;75.86;;
67900;Laerm;54700;51.796;10.956;2023-02-15T13:29:43;69.19;49.83;81.65;;
67900;Laerm;54700;51.796;10.956;2023-02-15T13:32:25;62.88;48.39;71.38;;
67900;Laerm;54700;51.796;10.956;2023-02-15T13:34:58;64.92;44.62;80.77;;
67900;Laerm;54700;51.796;10.956;2023-02-15T13:37:41;62.37;42.50;73.09;;
67900;Laerm;54700;51.796;10.956;2023-02-15T13:40:13;62.48;45.07;69.02;;
67900;Laerm;54700;51.796;10.956;2023-02-15T13:42:47;63.19;49.65;80.16;;
67900;Laerm;54700;51.796;10.956;2023-02-15T13:45:29;61.72;44.98;71.06;;
67900;Laerm;54700;51.796;10.956;2023-02-15T13:48:04;62.11;45.80;71.07;;
67900;Laerm;54700;51.796;10.956;2023-02-15T13:50:46;62.43;48.67;71.63;;
67900;Laerm;54700;51.796;10.956;2023-02-15T13:53:34;62.36;40.95;71.83;;
67900;Laerm;54700;51.796;10.956;2023-02-15T13:56:09;64.26;40.31;74.01;;
67900;Laerm;54700;51.796;10.956;2023-02-15T13:58:56;63.10;40.23;73.59;;
67900;Laerm;54700;51.796;10.956;2023-02-15T14:01:31;63.61;36.65;75.56;;
67900;Laerm;54700;51.796;10.956;2023-02-15T14:04:21;63.77;38.59;71.12;;
67900;Laerm;54700;51.796;10.956;2023-02-15T14:07:16;64.96;50.23;78.23;;
67900;Laerm;54700;51.796;10.956;2023-02-15T14:09:53;63.40;44.41;71.15;;
67900;Laerm;54700;51.796;10.956;2023-02-15T14:12:35;62.94;40.65;74.33;;
67900;Laerm;54700;51.796;10.956;2023-02-15T14:15:20;61.64;40.58;70.03;;
67900;Laerm;54700;51.796;10.956;2023-02-15T14:18:02;63.00;44.32;69.76;;
67900;Laerm;54700;51.796;10.956;2023-02-15T14:20:44;64.56;44.08;80.44;;
67900;Laerm;54700;51.796;10.956;2023-02-15T14:23:21;63.25;52.95;71.94;;